createdAt,value
2019-06-20T00:04:02.639Z,16.88
2019-06-20T00:10:11.555Z,16.92
2019-06-20T00:12:40.052Z,16.83
2019-06-20T00:16:02.775Z,16.78
2019-06-20T00:18:31.223Z,16.64
2019-06-20T00:20:59.677Z,16.37
2019-06-20T00:26:56.525Z,16.34
2019-06-20T00:29:24.950Z,16.35
2019-06-20T00:31:53.391Z,16.26
2019-06-20T00:34:21.846Z,16.21
2019-06-20T00:37:11.807Z,16.22
2019-06-20T00:39:40.232Z,16.31
2019-06-20T00:45:37.192Z,16.30
2019-06-20T00:48:05.724Z,16.35
2019-06-20T00:54:15.345Z,16.36
2019-06-20T01:00:25.711Z,16.21
2019-06-20T01:02:54.235Z,16.19
2019-06-20T01:08:50.827Z,16.38
2019-06-20T01:11:19.579Z,16.63
2019-06-20T01:16:52.156Z,16.77
2019-06-20T01:22:49.618Z,16.77
2019-06-20T01:25:21.114Z,16.51
2019-06-20T01:31:30.471Z,16.42
2019-06-20T01:33:58.925Z,16.48
2019-06-20T01:39:55.993Z,16.52
2019-06-20T01:45:53.320Z,16.64
2019-06-20T01:48:21.782Z,16.72
2019-06-20T01:50:50.376Z,16.71
2019-06-20T01:56:48.371Z,16.81
2019-06-20T01:59:16.851Z,16.87
2019-06-20T02:05:13.630Z,16.95
2019-06-20T02:07:42.067Z,16.94
2019-06-20T02:10:10.656Z,16.92
2019-06-20T02:12:39.107Z,16.94
2019-06-20T02:15:07.681Z,17.01
2019-06-20T02:21:05.647Z,17.02
2019-06-20T02:23:34.116Z,17.06
2019-06-20T02:29:43.149Z,17.08
2019-06-20T02:32:11.574Z,17.14
2019-06-20T02:34:40.025Z,17.21
2019-06-20T02:37:08.525Z,17.21
2019-06-20T02:39:36.979Z,17.27
2019-06-20T02:42:05.493Z,17.37
2019-06-20T02:44:33.959Z,17.40
2019-06-20T02:47:02.470Z,17.45
2019-06-20T02:53:11.501Z,17.49
2019-06-20T02:59:21.155Z,17.46
2019-06-20T03:01:50.266Z,17.50
2019-06-20T03:04:18.701Z,17.53
2019-06-20T03:06:47.223Z,17.51
2019-06-20T03:09:15.641Z,17.56
2019-06-20T03:11:44.089Z,17.57
2019-06-20T03:14:12.636Z,17.49
2019-06-20T03:16:41.183Z,17.57
2019-06-20T03:22:56.139Z,17.49
2019-06-20T03:25:24.708Z,17.40
2019-06-20T03:31:24.724Z,17.34
2019-06-20T03:33:59.022Z,17.29
2019-06-20T03:40:15.465Z,17.29
2019-06-20T03:42:46.499Z,17.29
2019-06-20T03:48:48.772Z,17.21
2019-06-20T03:51:20.181Z,17.25
2019-06-20T03:53:48.862Z,17.32
2019-06-20T03:59:48.186Z,17.29
2019-06-20T04:05:48.364Z,17.22
2019-06-20T04:08:16.992Z,17.05
2019-06-20T04:14:16.434Z,17.15
2019-06-20T04:16:45.058Z,17.08
2019-06-20T04:22:42.347Z,17.14
2019-06-20T04:25:10.917Z,17.27
2019-06-20T04:31:07.502Z,17.19
2019-06-20T04:33:36.026Z,17.14
2019-06-20T04:36:04.704Z,17.12
2019-06-20T04:38:36.161Z,17.22
2019-06-20T04:41:04.714Z,17.28
2019-06-20T04:43:33.777Z,17.30
2019-06-20T04:49:31.434Z,17.36
2019-06-20T04:55:28.446Z,17.50
2019-06-20T04:57:56.997Z,17.43
2019-06-20T05:00:25.637Z,17.50
2019-06-20T05:02:55.611Z,17.50
2019-06-20T05:05:24.562Z,17.50
2019-06-20T05:07:53.061Z,17.61
2019-06-20T05:10:21.708Z,17.70
2019-06-20T05:16:26.824Z,17.75
2019-06-20T05:19:18.692Z,17.45
2019-06-20T05:24:51.630Z,17.63
2019-06-20T05:31:00.873Z,17.70
2019-06-20T05:33:29.405Z,17.76
2019-06-20T05:35:57.901Z,17.75
2019-06-20T05:38:26.346Z,17.89
2019-06-20T05:40:54.829Z,18.06
2019-06-20T05:47:11.201Z,18.35
2019-06-20T05:52:28.118Z,17.93
2019-06-20T05:58:25.134Z,18.08
2019-06-20T06:04:34.366Z,18.13
2019-06-20T06:10:43.686Z,18.13
2019-06-20T06:16:44.125Z,18.26
2019-06-20T06:19:55.021Z,18.35
2019-06-20T06:26:03.605Z,18.35
2019-06-20T06:28:32.056Z,18.49
2019-06-20T06:31:00.500Z,18.53
2019-06-20T06:33:28.915Z,18.44
2019-06-20T06:35:57.382Z,18.57
2019-06-20T06:38:25.815Z,18.52
2019-06-20T06:40:54.252Z,18.67
2019-06-20T06:43:22.717Z,18.52
2019-06-20T06:45:52.259Z,18.61
2019-06-20T06:48:20.866Z,18.46
2019-06-20T06:50:50.267Z,18.61
2019-06-20T06:53:19.192Z,18.64
2019-06-20T06:55:48.460Z,18.80
2019-06-20T06:58:16.925Z,18.95
2019-06-20T07:00:45.269Z,19.00
2019-06-20T07:03:13.715Z,18.98
2019-06-20T07:05:42.265Z,18.99
2019-06-20T07:08:10.680Z,18.96
2019-06-20T07:10:39.187Z,19.32
2019-06-20T07:13:07.701Z,19.63
2019-06-20T07:15:36.149Z,19.36
2019-06-20T07:18:04.633Z,19.63
2019-06-20T07:20:33.077Z,19.28
2019-06-20T07:23:01.518Z,19.34
2019-06-20T07:25:29.994Z,19.52
2019-06-20T07:27:58.430Z,19.66
2019-06-20T07:30:27.077Z,19.82
2019-06-20T07:32:55.510Z,19.54
2019-06-20T07:35:24.519Z,19.95
2019-06-20T07:37:52.979Z,19.83
2019-06-20T07:40:21.535Z,20.08
2019-06-20T07:42:49.984Z,20.03
2019-06-20T07:45:21.463Z,20.22
2019-06-20T07:47:49.891Z,20.71
2019-06-20T07:50:18.328Z,20.97
2019-06-20T07:53:00.839Z,21.12
2019-06-20T07:55:17.014Z,21.50
2019-06-20T07:57:45.452Z,21.78
2019-06-20T08:00:14.327Z,21.89
2019-06-20T08:02:42.902Z,21.44
2019-06-20T08:05:13.167Z,21.43
2019-06-20T08:07:41.667Z,22.01
2019-06-20T08:10:14.811Z,22.28
2019-06-20T08:12:43.437Z,22.59
2019-06-20T08:15:15.536Z,22.67
2019-06-20T08:17:43.488Z,22.79
2019-06-20T08:20:13.135Z,22.64
2019-06-20T08:22:41.643Z,22.36
2019-06-20T08:25:10.738Z,22.07
2019-06-20T08:27:57.167Z,22.31
2019-06-20T08:30:29.637Z,22.68
2019-06-20T08:33:01.109Z,22.85
2019-06-20T08:35:31.472Z,22.20
2019-06-20T08:38:01.233Z,22.36
2019-06-20T08:40:32.881Z,21.97
2019-06-20T08:43:02.143Z,21.72
2019-06-20T08:45:33.303Z,22.30
2019-06-20T08:48:02.599Z,22.87
2019-06-20T08:50:31.397Z,23.26
2019-06-20T08:53:01.473Z,23.58
2019-06-20T08:55:30.250Z,23.87
2019-06-20T08:57:59.681Z,22.91
2019-06-20T09:00:31.018Z,22.61
2019-06-20T09:03:00.445Z,22.42
2019-06-20T09:05:30.744Z,22.85
2019-06-20T09:10:35.385Z,22.72
2019-06-20T09:13:04.070Z,23.13
2019-06-20T09:15:32.526Z,22.81
2019-06-20T09:18:00.958Z,22.81
2019-06-20T09:20:29.460Z,22.84
2019-06-20T09:22:58.913Z,23.39
2019-06-20T09:25:27.375Z,23.90
2019-06-20T09:27:56.000Z,23.84
2019-06-20T09:30:24.545Z,24.46
2019-06-20T09:32:53.939Z,24.73
2019-06-20T09:35:22.393Z,24.95
2019-06-20T09:37:51.838Z,24.29
2019-06-20T09:40:21.050Z,24.20
2019-06-20T09:42:51.146Z,24.03
2019-06-20T09:45:20.433Z,24.13
2019-06-20T09:47:50.432Z,24.21
2019-06-20T09:50:21.689Z,24.35
2019-06-20T09:52:51.384Z,24.29
2019-06-20T09:55:20.562Z,24.22
2019-06-20T09:57:50.299Z,24.20
2019-06-20T10:00:21.317Z,24.81
2019-06-20T10:02:50.681Z,25.03
2019-06-20T10:05:20.389Z,24.88
2019-06-20T10:07:50.186Z,25.07
2019-06-20T10:10:19.064Z,24.86
2019-06-20T10:12:47.993Z,24.83
2019-06-20T10:15:33.497Z,24.94
2019-06-20T10:18:02.037Z,25.00
2019-06-20T10:20:30.538Z,24.97
2019-06-20T10:22:58.968Z,25.04
2019-06-20T10:25:27.382Z,25.24
2019-06-20T10:27:55.815Z,25.19
2019-06-20T10:30:26.714Z,25.36
2019-06-20T10:32:55.101Z,25.53
2019-06-20T10:35:24.707Z,25.68
2019-06-20T10:37:53.298Z,25.60
2019-06-20T10:40:21.949Z,25.95
2019-06-20T10:42:50.384Z,26.44
2019-06-20T10:45:20.943Z,26.30
2019-06-20T10:47:50.770Z,26.25
2019-06-20T10:50:20.733Z,26.17
2019-06-20T10:52:50.101Z,26.51
2019-06-20T10:55:19.196Z,25.52
2019-06-20T10:57:49.638Z,26.10
2019-06-20T11:00:30.357Z,26.64
2019-06-20T11:02:49.108Z,27.07
2019-06-20T11:05:18.875Z,27.53
2019-06-20T11:07:47.656Z,27.58
2019-06-20T11:10:16.882Z,27.34
2019-06-20T11:12:50.223Z,26.80
2019-06-20T11:15:16.431Z,26.52
2019-06-20T11:17:46.184Z,26.50
2019-06-20T11:20:16.232Z,26.89
2019-06-20T11:22:45.396Z,26.92
2019-06-20T11:25:18.949Z,27.03
2019-06-20T11:27:47.333Z,27.19
2019-06-20T11:30:44.777Z,27.27
2019-06-20T11:33:00.856Z,26.91
2019-06-20T11:35:29.247Z,27.33
2019-06-20T11:37:57.710Z,26.78
2019-06-20T11:40:26.279Z,26.82
2019-06-20T11:42:54.785Z,27.29
2019-06-20T11:45:23.660Z,27.05
2019-06-20T11:50:27.750Z,26.75
2019-06-20T11:52:56.157Z,27.28
2019-06-20T11:55:24.698Z,27.14
2019-06-20T11:57:53.134Z,27.31
2019-06-20T12:00:23.116Z,27.38
2019-06-20T12:02:51.547Z,27.75
2019-06-20T12:05:20.378Z,27.07
2019-06-20T12:07:50.011Z,27.64
2019-06-20T12:10:20.171Z,27.73
2019-06-20T12:12:49.163Z,27.34
2019-06-20T12:15:19.552Z,27.24
2019-06-20T12:17:49.285Z,27.22
2019-06-20T12:20:18.503Z,27.11
2019-06-20T12:22:46.911Z,27.13
2019-06-20T12:25:17.246Z,27.61
2019-06-20T12:27:45.835Z,27.22
2019-06-20T12:30:16.918Z,26.81
2019-06-20T12:32:46.684Z,25.96
2019-06-20T12:35:15.598Z,26.11
2019-06-20T12:37:45.191Z,25.51
2019-06-20T12:40:14.626Z,25.75
2019-06-20T12:42:43.568Z,26.53
2019-06-20T12:45:15.740Z,26.20
2019-06-20T12:47:44.233Z,26.41
2019-06-20T12:50:14.298Z,25.91
2019-06-20T12:52:42.846Z,26.01
2019-06-20T12:55:12.419Z,25.82
2019-06-20T12:57:42.108Z,26.03
2019-06-20T13:00:12.689Z,25.75
2019-06-20T13:02:42.046Z,25.91
2019-06-20T13:05:13.315Z,25.80
2019-06-20T13:07:42.355Z,25.89
2019-06-20T13:10:11.306Z,25.90
2019-06-20T13:12:41.408Z,26.02
2019-06-20T13:15:10.524Z,26.14
2019-06-20T13:17:39.945Z,26.18
2019-06-20T13:20:10.306Z,26.12
2019-06-20T13:22:39.511Z,25.92
2019-06-20T13:25:11.003Z,25.75
2019-06-20T13:27:40.977Z,25.69
2019-06-20T13:30:10.894Z,25.61
2019-06-20T13:32:41.685Z,25.07
2019-06-20T13:35:13.710Z,25.15
2019-06-20T13:37:43.451Z,25.42
2019-06-20T13:40:16.507Z,25.17
2019-06-20T13:42:46.162Z,25.16
2019-06-20T13:45:26.955Z,25.11
2019-06-20T13:47:56.356Z,24.87
2019-06-20T13:50:27.541Z,22.39
2019-06-20T13:52:56.009Z,20.69
2019-06-20T13:55:24.593Z,19.73
2019-06-20T13:57:53.213Z,19.53
2019-06-20T14:00:23.577Z,19.29
2019-06-20T14:02:52.202Z,19.12
2019-06-20T14:05:20.973Z,18.90
2019-06-20T14:07:52.912Z,18.63
2019-06-20T14:10:20.215Z,18.82
2019-06-20T14:12:49.042Z,18.80
2019-06-20T14:15:17.587Z,19.07
2019-06-20T14:17:47.167Z,19.23
2019-06-20T14:20:16.604Z,19.55
2019-06-20T14:22:45.260Z,19.79
2019-06-20T14:25:13.769Z,20.00
2019-06-20T14:27:42.336Z,19.77
2019-06-20T14:30:13.526Z,19.73
2019-06-20T14:32:43.994Z,19.77
2019-06-20T14:35:16.258Z,19.77
2019-06-20T14:37:46.070Z,19.87
2019-06-20T14:40:16.136Z,19.78
2019-06-20T14:42:45.950Z,19.82
2019-06-20T14:45:15.161Z,19.77
2019-06-20T14:47:43.718Z,19.92
2019-06-20T14:50:12.982Z,20.10
2019-06-20T14:52:42.698Z,20.17
2019-06-20T14:55:12.486Z,20.17
2019-06-20T14:57:41.115Z,20.10
2019-06-20T15:00:11.203Z,20.03
2019-06-20T15:02:39.643Z,20.09
2019-06-20T15:05:16.839Z,19.85
2019-06-20T15:07:47.231Z,19.65
2019-06-20T15:10:19.453Z,19.84
2019-06-20T15:12:49.852Z,19.81
2019-06-20T15:15:18.303Z,19.67
2019-06-20T15:17:49.504Z,19.53
2019-06-20T15:20:17.109Z,19.42
2019-06-20T15:22:47.004Z,19.49
2019-06-20T15:25:16.193Z,19.59
2019-06-20T15:27:47.254Z,19.41
2019-06-20T15:30:15.145Z,19.51
2019-06-20T15:32:55.591Z,19.46
2019-06-20T15:35:14.088Z,19.52
2019-06-20T15:37:42.515Z,19.52
2019-06-20T15:40:12.194Z,19.56
2019-06-20T15:42:40.633Z,19.50
2019-06-20T15:45:10.913Z,19.45
2019-06-20T15:47:39.347Z,19.39
2019-06-20T15:50:09.425Z,19.41
2019-06-20T15:52:37.907Z,19.17
2019-06-20T15:55:07.639Z,19.25
2019-06-20T15:57:36.615Z,19.25
2019-06-20T16:00:09.581Z,19.45
2019-06-20T16:02:38.015Z,19.55
2019-06-20T16:05:08.182Z,19.68
2019-06-20T16:07:37.072Z,19.84
2019-06-20T16:10:09.702Z,19.86
2019-06-20T16:12:38.149Z,19.89
2019-06-20T16:15:11.599Z,20.00
2019-06-20T16:17:40.113Z,19.97
2019-06-20T16:20:09.092Z,20.19
2019-06-20T16:22:37.584Z,20.21
2019-06-20T16:25:12.766Z,20.34
2019-06-20T16:27:41.700Z,20.55
2019-06-20T16:30:13.236Z,20.83
2019-06-20T16:32:41.862Z,20.88
2019-06-20T16:35:10.731Z,21.16
2019-06-20T16:37:39.180Z,21.20
2019-06-20T16:40:09.024Z,21.29
2019-06-20T16:42:37.554Z,21.32
2019-06-20T16:45:09.107Z,21.37
2019-06-20T16:47:37.727Z,21.15
2019-06-20T16:50:07.614Z,21.10
2019-06-20T16:52:36.222Z,20.60
2019-06-20T16:55:08.592Z,20.69
2019-06-20T16:57:36.994Z,20.52
2019-06-20T17:00:09.595Z,20.60
2019-06-20T17:02:38.086Z,20.77
2019-06-20T17:05:07.222Z,20.63
2019-06-20T17:07:35.642Z,20.77
2019-06-20T17:10:06.853Z,20.89
2019-06-20T17:12:35.403Z,20.81
2019-06-20T17:15:04.789Z,20.82
2019-06-20T17:17:33.267Z,20.95
2019-06-20T17:20:01.803Z,21.10
2019-06-20T17:22:30.426Z,21.02
2019-06-20T17:24:58.887Z,21.10
2019-06-20T17:27:27.335Z,21.05
2019-06-20T17:29:55.815Z,21.13
2019-06-20T17:32:24.265Z,21.38
2019-06-20T17:34:52.661Z,21.27
2019-06-20T17:37:21.070Z,20.95
2019-06-20T17:39:49.519Z,21.18
2019-06-20T17:42:17.968Z,21.30
2019-06-20T17:44:46.388Z,21.29
2019-06-20T17:47:14.800Z,21.30
2019-06-20T17:49:43.201Z,21.20
2019-06-20T17:52:11.716Z,21.20
2019-06-20T17:54:40.195Z,21.22
2019-06-20T17:57:08.646Z,21.06
2019-06-20T17:59:37.064Z,20.94
2019-06-20T18:02:06.184Z,20.99
2019-06-20T18:04:35.580Z,20.87
2019-06-20T18:07:04.169Z,20.85
2019-06-20T18:09:32.625Z,20.78
2019-06-20T18:12:01.030Z,20.77
2019-06-20T18:14:29.485Z,20.69
2019-06-20T18:16:57.990Z,20.59
2019-06-20T18:19:26.474Z,20.55
2019-06-20T18:21:54.894Z,20.53
2019-06-20T18:24:23.312Z,20.36
2019-06-20T18:26:51.781Z,20.06
2019-06-20T18:29:20.304Z,20.08
2019-06-20T18:31:48.721Z,19.87
2019-06-20T18:34:29.516Z,19.78
2019-06-20T18:36:47.362Z,19.71
2019-06-20T18:39:15.838Z,19.60
2019-06-20T18:41:47.477Z,19.55
2019-06-20T18:44:17.505Z,19.51
2019-06-20T18:46:46.084Z,19.50
2019-06-20T18:49:14.518Z,19.49
2019-06-20T18:51:42.982Z,19.57
2019-06-20T18:54:11.374Z,19.47
2019-06-20T18:56:39.840Z,19.41
2019-06-20T18:59:08.278Z,19.43
2019-06-20T19:01:36.779Z,19.36
2019-06-20T19:04:05.564Z,19.46
2019-06-20T19:06:36.337Z,19.38
2019-06-20T19:09:07.275Z,19.41
2019-06-20T19:11:35.669Z,19.30
2019-06-20T19:14:04.381Z,19.05
2019-06-20T19:16:32.875Z,18.73
2019-06-20T19:19:01.792Z,18.25
2019-06-20T19:21:30.382Z,18.31
2019-06-20T19:24:00.205Z,18.51
2019-06-20T19:26:28.686Z,18.21
2019-06-20T19:28:57.150Z,18.01
2019-06-20T19:31:25.582Z,17.85
2019-06-20T19:33:54.037Z,17.84
2019-06-20T19:36:22.457Z,17.75
2019-06-20T19:38:50.899Z,17.79
2019-06-20T19:41:19.351Z,18.01
2019-06-20T19:43:47.775Z,17.98
2019-06-20T19:46:16.647Z,18.22
2019-06-20T19:48:45.139Z,18.36
2019-06-20T19:51:13.609Z,18.32
2019-06-20T19:53:45.861Z,18.33
2019-06-20T19:56:12.435Z,18.30
2019-06-20T19:58:40.965Z,18.17
2019-06-20T20:01:09.465Z,18.04
2019-06-20T20:03:38.078Z,17.94
2019-06-20T20:06:06.620Z,17.88
2019-06-20T20:08:35.106Z,17.87
2019-06-20T20:11:03.571Z,17.82
2019-06-20T20:13:31.987Z,17.75
2019-06-20T20:16:00.609Z,17.65
2019-06-20T20:18:29.073Z,17.57
2019-06-20T20:20:57.524Z,17.61
2019-06-20T20:23:26.042Z,17.56
2019-06-20T20:25:54.638Z,17.47
2019-06-20T20:28:23.119Z,17.41
2019-06-20T20:30:53.644Z,17.35
2019-06-20T20:33:21.727Z,17.20
2019-06-20T20:35:50.162Z,17.17
2019-06-20T20:38:18.585Z,17.11
2019-06-20T20:40:47.051Z,17.12
2019-06-20T20:43:15.621Z,17.11
2019-06-20T20:45:44.221Z,17.08
2019-06-20T20:48:12.688Z,17.07
2019-06-20T20:50:41.170Z,16.97
2019-06-20T20:53:09.593Z,16.98
2019-06-20T20:55:38.116Z,16.91
2019-06-20T20:58:06.555Z,16.75
2019-06-20T21:00:44.116Z,16.66
2019-06-20T21:03:12.652Z,16.62
2019-06-20T21:05:50.879Z,16.59
2019-06-20T21:08:11.519Z,16.53
2019-06-20T21:10:39.978Z,16.52
2019-06-20T21:13:08.387Z,16.51
2019-06-20T21:15:36.874Z,16.48
2019-06-20T21:18:05.464Z,16.44
2019-06-20T21:20:33.887Z,16.39
2019-06-20T21:23:02.339Z,16.34
2019-06-20T21:25:32.339Z,16.31
2019-06-20T21:28:01.025Z,16.31
2019-06-20T21:30:29.511Z,16.32
2019-06-20T21:32:57.981Z,16.24
2019-06-20T21:35:26.438Z,16.17
2019-06-20T21:37:54.882Z,16.19
2019-06-20T21:40:23.467Z,16.17
2019-06-20T21:42:51.916Z,16.17
2019-06-20T21:45:20.963Z,16.22
2019-06-20T21:47:49.396Z,16.23
2019-06-20T21:50:17.967Z,16.14
2019-06-20T21:52:46.425Z,16.22
2019-06-20T21:55:15.043Z,16.24
2019-06-20T21:57:43.479Z,16.25
2019-06-20T22:00:37.755Z,16.21
2019-06-20T22:03:06.904Z,16.21
2019-06-20T22:05:35.424Z,16.25
2019-06-20T22:08:04.192Z,16.28
2019-06-20T22:10:32.595Z,16.28
2019-06-20T22:13:01.105Z,16.25
2019-06-20T22:15:29.611Z,16.25
2019-06-20T22:17:58.057Z,16.17
2019-06-20T22:20:26.630Z,16.23
2019-06-20T22:22:55.109Z,16.18
2019-06-20T22:25:24.727Z,16.13
2019-06-20T22:27:53.169Z,16.09
2019-06-20T22:30:30.295Z,16.08
2019-06-20T22:32:58.759Z,16.11
2019-06-20T22:35:27.182Z,16.04
2019-06-20T22:37:55.588Z,16.07
2019-06-20T22:40:24.035Z,16.11
2019-06-20T22:42:52.457Z,16.12
2019-06-20T22:45:21.782Z,16.15
2019-06-20T22:47:50.190Z,16.14
2019-06-20T22:50:18.786Z,16.17
2019-06-20T22:52:47.267Z,16.18
2019-06-20T22:55:15.694Z,16.13
2019-06-20T22:57:44.149Z,16.15
2019-06-20T23:00:13.919Z,16.14
2019-06-20T23:02:42.475Z,16.14
2019-06-20T23:05:11.060Z,16.11
2019-06-20T23:07:39.555Z,16.08
2019-06-20T23:10:11.214Z,16.04
2019-06-20T23:12:40.009Z,16.06
2019-06-20T23:15:09.486Z,16.06
2019-06-20T23:17:38.026Z,16.03
2019-06-20T23:20:10.528Z,16.07
2019-06-20T23:22:39.056Z,16.04
2019-06-20T23:25:08.847Z,15.97
2019-06-20T23:27:37.290Z,15.96
2019-06-20T23:30:13.138Z,15.88
2019-06-20T23:32:41.625Z,15.88
2019-06-20T23:35:11.712Z,15.82
2019-06-20T23:37:40.161Z,15.81
2019-06-20T23:40:10.135Z,15.80
2019-06-20T23:42:38.650Z,15.79
2019-06-20T23:45:08.200Z,15.53
2019-06-20T23:47:36.748Z,15.49
2019-06-20T23:50:09.203Z,15.50
2019-06-20T23:52:39.279Z,15.44
2019-06-20T23:55:08.193Z,15.36
2019-06-20T23:57:36.609Z,15.47
